Terminal Aerodrome Forecast
Issued by NWS Grand Forks, ND

Home | Current Version | Previous Version | Graphics & Text | Print | Product List | Glossary On
Versions: 1 2 3 4 5 6 7 8 9 10 11 12 13 14 15
000
FTUS43 KFGF 131700
TAFFAR
TAF
KFAR 131720Z 1318/1418 35020G30KT P6SM OVC015
      TEMPO 1318/1320 BKN025
     FM132000 35020G30KT P6SM BKN025
      TEMPO 1321/1324 SCT025
     FM140000 35018KT P6SM SCT040=

USA.gov is the U.S. government's official web portal to all federal, state and local government web resources and services.